Grant Town, West Virginia
Current Conditions -  °F | °C
As of 11:53 PM on Saturday 25 Oct 2014 (Local Time) from KMGW Reporting Station
Clear Clear  
Wind Chill: 60°   Ceiling: Unl
Heat Index: 60°   Visibility: 10mi
Dew Point: 50°   Wind: 5mph
Humidity: 69%   Direction: 220°SW
Pressure: 29.83"   Gusts: NA
Location:  39.56°N, 80.18°W
Report Text: KMGW 260353Z AUTO 22004KT 10SM CLR 16/10 A2983 RMK AO2 SLP099 T01560100 TSNO
Loading
Personal Weather Stations






























Interactive Weather Map
Tropical Storm Tracking
New forecast layout! Learn more

10-Day Weather Forecast

Advertisements
Track Severe Weather on mobile